createdAt,value
2017-10-02T00:00:29.591Z,40.77
2017-10-02T00:01:38.925Z,40.96
2017-10-02T00:02:47.617Z,41.25
2017-10-02T00:03:56.951Z,40.86
2017-10-02T00:05:06.317Z,41.15
2017-10-02T00:06:15.311Z,41.44
2017-10-02T00:07:24.327Z,40.96
2017-10-02T00:08:33.024Z,41.35
2017-10-02T00:09:41.717Z,40.96
2017-10-02T00:10:51.057Z,41.25
2017-10-02T00:11:59.752Z,40.67
2017-10-02T00:13:08.771Z,41.25
2017-10-02T00:14:17.469Z,40.57
2017-10-02T00:15:27.126Z,41.35
2017-10-02T00:16:35.824Z,40.67
2017-10-02T00:17:44.839Z,41.35
2017-10-02T00:18:54.178Z,40.96
2017-10-02T00:20:03.517Z,41.05
2017-10-02T00:21:12.213Z,40.77
2017-10-02T00:22:21.236Z,41.15
2017-10-02T00:23:31.215Z,41.35
2017-10-02T00:24:40.550Z,40.77
2017-10-02T00:25:50.207Z,40.67
2017-10-02T00:26:59.859Z,40.96
2017-10-02T00:28:08.876Z,40.77
2017-10-02T00:29:17.575Z,41.35
2017-10-02T00:30:26.594Z,40.67
2017-10-02T00:31:35.292Z,40.67
2017-10-02T00:32:44.643Z,41.15
2017-10-02T00:33:53.342Z,40.67
2017-10-02T00:35:02.989Z,41.05
2017-10-02T00:36:12.319Z,41.05
2017-10-02T00:37:21.650Z,40.86
2017-10-02T00:38:30.665Z,40.96
2017-10-02T00:39:39.682Z,40.38
2017-10-02T00:40:49.016Z,40.86
2017-10-02T00:41:58.346Z,40.57
2017-10-02T00:43:07.362Z,40.47
2017-10-02T00:44:17.015Z,41.25
2017-10-02T00:45:26.348Z,41.25
2017-10-02T00:46:35.680Z,40.67
2017-10-02T00:47:45.332Z,40.38
2017-10-02T00:48:54.669Z,40.38
2017-10-02T00:50:04.006Z,40.77
2017-10-02T00:51:13.016Z,40.28
2017-10-02T00:52:22.031Z,40.96
2017-10-02T00:53:31.366Z,40.38
2017-10-02T00:54:40.692Z,41.05
2017-10-02T00:55:50.026Z,40.28
2017-10-02T00:56:59.362Z,40.47
2017-10-02T00:58:08.692Z,40.77
2017-10-02T00:59:18.031Z,40.86
2017-10-02T01:00:27.044Z,40.28
2017-10-02T01:01:36.057Z,41.15
2017-10-02T01:02:45.072Z,40.57
2017-10-02T01:03:54.406Z,40.47
2017-10-02T01:05:03.418Z,40.47
2017-10-02T01:06:12.433Z,40.96
2017-10-02T01:07:22.095Z,41.05
2017-10-02T01:08:31.432Z,40.86
2017-10-02T01:09:40.447Z,40.38
2017-10-02T01:10:50.103Z,40.96
2017-10-02T01:11:59.440Z,40.57
2017-10-02T01:13:08.143Z,40.38
2017-10-02T01:14:17.146Z,40.57
2017-10-02T01:15:26.510Z,41.05
2017-10-02T01:16:35.527Z,41.25
2017-10-02T01:17:44.540Z,40.38
2017-10-02T01:18:53.552Z,40.38
2017-10-02T01:20:03.209Z,40.86
2017-10-02T01:21:11.907Z,40.38
2017-10-02T01:22:20.926Z,40.47
2017-10-02T01:23:29.942Z,40.86
2017-10-02T01:24:38.956Z,40.86
2017-10-02T01:25:47.976Z,40.28
2017-10-02T01:26:57.308Z,40.38
2017-10-02T01:28:06.329Z,40.38
2017-10-02T01:29:15.982Z,40.57
2017-10-02T01:30:25.315Z,40.38
2017-10-02T01:31:34.010Z,40.86
2017-10-02T01:32:43.341Z,40.57
2017-10-02T01:33:52.681Z,40.57
2017-10-02T01:35:01.699Z,40.77
2017-10-02T01:36:11.042Z,40.67
2017-10-02T01:37:19.740Z,40.38
2017-10-02T01:38:28.436Z,40.67
2017-10-02T01:39:38.095Z,40.67
2017-10-02T01:40:47.107Z,40.96
2017-10-02T01:41:56.758Z,40.67
2017-10-02T01:43:05.775Z,40.96
2017-10-02T01:44:14.789Z,40.86
2017-10-02T01:45:24.125Z,40.38
2017-10-02T01:46:33.137Z,40.86
2017-10-02T01:47:42.471Z,40.36
2017-10-02T01:48:51.168Z,40.47
2017-10-02T01:49:59.863Z,40.17
2017-10-02T01:51:08.880Z,40.57
2017-10-02T01:52:17.894Z,41.03
2017-10-02T01:53:26.607Z,40.67
2017-10-02T01:54:35.280Z,40.96
2017-10-02T01:55:43.976Z,40.38
2017-10-02T01:56:52.990Z,40.36
2017-10-02T01:58:02.004Z,40.57
2017-10-02T01:59:11.351Z,40.45
2017-10-02T02:00:21.321Z,40.45
2017-10-02T02:01:30.654Z,40.38
2017-10-02T02:02:39.348Z,40.38
2017-10-02T02:03:48.361Z,40.47
2017-10-02T02:04:57.061Z,40.86
2017-10-02T02:06:06.396Z,40.36
2017-10-02T02:07:15.093Z,40.38
2017-10-02T02:08:24.107Z,40.26
2017-10-02T02:09:33.443Z,40.55
2017-10-02T02:10:42.788Z,40.26
2017-10-02T02:11:51.805Z,40.84
2017-10-02T02:13:00.819Z,41.15
2017-10-02T02:14:10.150Z,40.94
2017-10-02T02:15:19.490Z,41.03
2017-10-02T02:16:28.822Z,40.75
2017-10-02T02:17:37.836Z,40.45
2017-10-02T02:18:46.850Z,40.84
2017-10-02T02:19:56.181Z,40.84
2017-10-02T02:21:05.524Z,40.55
2017-10-02T02:22:14.219Z,40.75
2017-10-02T02:23:22.917Z,41.33
2017-10-02T02:24:31.940Z,41.13
2017-10-02T02:25:40.949Z,40.55
2017-10-02T02:26:49.643Z,40.75
2017-10-02T02:27:59.292Z,41.23
2017-10-02T02:29:08.626Z,41.13
2017-10-02T02:30:18.285Z,41.13
2017-10-02T02:31:27.946Z,40.75
2017-10-02T02:32:37.280Z,41.44
2017-10-02T02:33:45.981Z,40.75
2017-10-02T02:34:54.673Z,40.45
2017-10-02T02:36:03.370Z,40.65
2017-10-02T02:37:12.064Z,40.65
2017-10-02T02:38:21.390Z,40.55
2017-10-02T02:39:30.091Z,41.23
2017-10-02T02:40:39.432Z,40.45
2017-10-02T02:41:49.091Z,40.65
2017-10-02T02:42:58.113Z,40.65
2017-10-02T02:44:07.787Z,41.23
2017-10-02T02:45:17.449Z,40.94
2017-10-02T02:46:26.781Z,40.75
2017-10-02T02:47:35.796Z,41.03
2017-10-02T02:48:44.806Z,41.13
2017-10-02T02:49:53.830Z,41.33
2017-10-02T02:51:02.848Z,40.75
2017-10-02T02:52:11.553Z,40.84
2017-10-02T02:53:21.216Z,40.84
2017-10-02T02:54:30.558Z,41.33
2017-10-02T02:55:39.900Z,41.33
2017-10-02T02:56:49.236Z,40.94
2017-10-02T02:57:58.253Z,41.23
2017-10-02T02:59:07.584Z,41.52
2017-10-02T03:00:16.279Z,41.52
2017-10-02T03:01:25.932Z,41.23
2017-10-02T03:02:35.270Z,41.33
2017-10-02T03:03:44.287Z,41.42
2017-10-02T03:04:52.979Z,41.33
2017-10-02T03:06:02.959Z,41.71
2017-10-02T03:07:12.615Z,41.42
2017-10-02T03:08:21.628Z,41.42
2017-10-02T03:09:30.643Z,41.33
2017-10-02T03:10:39.985Z,41.33
2017-10-02T03:11:48.684Z,41.23
2017-10-02T03:12:58.341Z,41.13
2017-10-02T03:14:07.034Z,41.42
2017-10-02T03:15:16.689Z,41.13
2017-10-02T03:16:25.703Z,41.42
2017-10-02T03:17:34.400Z,41.42
2017-10-02T03:18:43.729Z,41.33
2017-10-02T03:19:52.747Z,41.33
2017-10-02T03:21:02.077Z,41.23
2017-10-02T03:22:11.097Z,41.23
2017-10-02T03:23:20.755Z,41.33
2017-10-02T03:24:30.089Z,41.42
2017-10-02T03:25:39.105Z,41.52
2017-10-02T03:26:47.825Z,41.42
2017-10-02T03:27:57.798Z,41.42
2017-10-02T03:29:06.498Z,41.42
2017-10-02T03:30:15.194Z,41.91
2017-10-02T03:31:24.546Z,41.81
2017-10-02T03:32:33.558Z,41.33
2017-10-02T03:33:42.900Z,41.91
2017-10-02T03:34:52.235Z,41.33
2017-10-02T03:36:01.565Z,41.23
2017-10-02T03:37:10.902Z,41.23
2017-10-02T03:38:20.241Z,41.23
2017-10-02T03:39:29.255Z,41.23
2017-10-02T03:40:38.586Z,41.23
2017-10-02T03:41:47.603Z,41.42
2017-10-02T03:42:56.617Z,41.03
2017-10-02T03:44:06.270Z,41.61
2017-10-02T03:45:15.604Z,42.1
2017-10-02T03:46:24.933Z,41.81
2017-10-02T03:47:34.274Z,41.52
2017-10-02T03:48:43.297Z,41.13
2017-10-02T03:49:51.996Z,41.61
2017-10-02T03:51:01.330Z,41.13
2017-10-02T03:52:10.341Z,42.19
2017-10-02T03:53:19.361Z,41.13
2017-10-02T03:54:29.031Z,42.1
2017-10-02T03:55:37.727Z,41.03
2017-10-02T03:56:47.062Z,42.1
2017-10-02T03:57:56.403Z,41.13
2017-10-02T03:59:05.097Z,42.1
2017-10-02T04:00:14.108Z,41.61
2017-10-02T04:01:23.758Z,41.52
2017-10-02T04:02:33.412Z,41.42
2017-10-02T04:03:42.750Z,41.91
2017-10-02T04:04:51.773Z,41.61
2017-10-02T04:06:01.110Z,41.03
2017-10-02T04:07:10.445Z,41.23
2017-10-02T04:08:20.094Z,41.13
2017-10-02T04:09:28.791Z,42.19
2017-10-02T04:10:37.799Z,41.13
2017-10-02T04:11:47.146Z,41.52
2017-10-02T04:12:55.839Z,41.23
2017-10-02T04:14:05.170Z,40.94
2017-10-02T04:15:14.501Z,41.23
2017-10-02T04:16:23.517Z,41.23
2017-10-02T04:17:32.856Z,41.42
2017-10-02T04:18:41.548Z,41.13
2017-10-02T04:19:50.562Z,41.33
2017-10-02T04:20:59.257Z,41.52
2017-10-02T04:22:08.273Z,42.1
2017-10-02T04:23:16.965Z,42.19
2017-10-02T04:24:26.297Z,40.94
2017-10-02T04:25:35.634Z,41.91
2017-10-02T04:26:44.654Z,41.52
2017-10-02T04:27:53.985Z,41.42
2017-10-02T04:29:02.681Z,41.52
2017-10-02T04:30:11.374Z,41.52
2017-10-02T04:31:20.067Z,41.52
2017-10-02T04:32:29.077Z,41.91
2017-10-02T04:33:38.086Z,41.91
2017-10-02T04:34:47.098Z,41.91
2017-10-02T04:35:55.794Z,41.03
2017-10-02T04:37:04.489Z,41.23
2017-10-02T04:38:14.140Z,41.61
2017-10-02T04:39:23.153Z,41.91
2017-10-02T04:40:32.488Z,42
2017-10-02T04:41:41.506Z,42.1
2017-10-02T04:42:50.203Z,41.52
2017-10-02T04:43:59.220Z,41.61
2017-10-02T04:45:07.915Z,41.61
2017-10-02T04:46:17.245Z,41.42
2017-10-02T04:47:26.267Z,41.52
2017-10-02T04:48:34.965Z,41.61
2017-10-02T04:49:44.297Z,42.1
2017-10-02T04:50:53.314Z,41.52
2017-10-02T04:52:02.966Z,42
2017-10-02T04:53:12.299Z,41.52
2017-10-02T04:54:21.951Z,41.91
2017-10-02T04:55:30.967Z,41.61
2017-10-02T04:56:40.298Z,41.61
2017-10-02T04:57:49.631Z,41.61
2017-10-02T04:58:58.968Z,41.42
2017-10-02T05:00:08.619Z,42.1
2017-10-02T05:01:18.266Z,41.61
2017-10-02T05:02:27.603Z,41.61
2017-10-02T05:03:37.573Z,41.33
2017-10-02T05:04:46.908Z,41.42
2017-10-02T05:05:56.240Z,41.23
2017-10-02T05:07:05.573Z,41.52
2017-10-02T05:08:14.270Z,41.33
2017-10-02T05:09:23.610Z,41.52
2017-10-02T05:10:32.304Z,41.52
2017-10-02T05:11:41.319Z,41.52
2017-10-02T05:12:50.016Z,41.52
2017-10-02T05:13:59.665Z,41.52
2017-10-02T05:15:08.362Z,42.1
2017-10-02T05:16:17.058Z,41.52
2017-10-02T05:17:26.075Z,41.35
2017-10-02T05:18:35.732Z,41.61
2017-10-02T05:19:44.748Z,41.61
2017-10-02T05:20:54.724Z,41.42
2017-10-02T05:22:03.733Z,41.63
2017-10-02T05:23:13.393Z,41.61
2017-10-02T05:24:22.088Z,42.1
2017-10-02T05:25:30.788Z,42.1
2017-10-02T05:26:40.169Z,42.1
2017-10-02T05:27:49.502Z,41.73
2017-10-02T05:28:58.513Z,41.63
2017-10-02T05:30:07.535Z,42.12
2017-10-02T05:31:17.193Z,41.61
2017-10-02T05:32:26.842Z,41.61
2017-10-02T05:33:36.192Z,41.61
2017-10-02T05:34:45.206Z,41.61
2017-10-02T05:35:54.542Z,41.61
2017-10-02T05:37:03.873Z,41.61
2017-10-02T05:38:13.209Z,42.21
2017-10-02T05:39:22.222Z,41.52
2017-10-02T05:40:31.236Z,41.52
2017-10-02T05:41:40.273Z,41.61
2017-10-02T05:42:49.600Z,42.02
2017-10-02T05:43:58.618Z,42.02
2017-10-02T05:45:07.632Z,41.52
2017-10-02T05:46:16.325Z,41.42
2017-10-02T05:47:25.343Z,41.52
2017-10-02T05:48:34.363Z,41.52
2017-10-02T05:49:43.375Z,41.52
2017-10-02T05:50:52.390Z,41.81
2017-10-02T05:52:01.720Z,41.71
2017-10-02T05:53:10.736Z,41.91
2017-10-02T05:54:19.749Z,42
2017-10-02T05:55:28.442Z,41.63
2017-10-02T05:56:37.136Z,41.61
2017-10-02T05:57:46.471Z,41.71
2017-10-02T05:58:55.494Z,41.71
2017-10-02T06:00:04.835Z,41.71
2017-10-02T06:01:14.171Z,42.12
2017-10-02T06:02:23.819Z,41.33
2017-10-02T06:03:32.514Z,41.91
2017-10-02T06:04:41.531Z,42.02
2017-10-02T06:05:50.543Z,41.73
2017-10-02T06:06:59.554Z,41.73
2017-10-02T06:08:08.246Z,41.71
2017-10-02T06:09:17.266Z,41.61
2017-10-02T06:10:26.284Z,41.73
2017-10-02T06:11:35.301Z,41.81
2017-10-02T06:12:44.946Z,41.73
2017-10-02T06:13:53.642Z,41.71
2017-10-02T06:15:02.976Z,41.71
2017-10-02T06:16:11.991Z,41.81
2017-10-02T06:17:20.692Z,41.71
2017-10-02T06:18:29.385Z,41.61
2017-10-02T06:19:39.034Z,41.71
2017-10-02T06:20:47.732Z,41.71
2017-10-02T06:21:56.751Z,41.73
2017-10-02T06:23:05.769Z,41.63
2017-10-02T06:24:15.428Z,41.81
2017-10-02T06:25:24.115Z,41.81
2017-10-02T06:26:33.767Z,41.83
2017-10-02T06:27:42.783Z,41.81
2017-10-02T06:28:52.121Z,41.83
2017-10-02T06:30:00.817Z,41.91
2017-10-02T06:31:09.833Z,41.91
2017-10-02T06:32:19.176Z,42
2017-10-02T06:33:28.512Z,42
2017-10-02T06:34:37.842Z,42.1
2017-10-02T06:35:47.177Z,42
2017-10-02T06:36:56.506Z,42.1
2017-10-02T06:38:05.838Z,42.1
2017-10-02T06:39:14.531Z,41.81
2017-10-02T06:40:23.547Z,41.91
2017-10-02T06:41:32.879Z,42.02
2017-10-02T06:42:41.574Z,41.81
2017-10-02T06:43:50.587Z,42
2017-10-02T06:44:59.282Z,42.21
2017-10-02T06:46:08.939Z,42.21
2017-10-02T06:47:17.955Z,42.12
2017-10-02T06:48:26.974Z,41.93
2017-10-02T06:49:35.989Z,42.21
2017-10-02T06:50:45.318Z,42.19
2017-10-02T06:51:54.332Z,42.19
2017-10-02T06:53:03.354Z,41.91
2017-10-02T06:54:12.691Z,42.19
2017-10-02T06:55:21.706Z,42.21
2017-10-02T06:56:31.361Z,42
2017-10-02T06:57:40.690Z,42.1
2017-10-02T06:58:50.024Z,42.02
2017-10-02T06:59:59.358Z,42.12
2017-10-02T07:01:08.373Z,42.39
2017-10-02T07:02:17.389Z,42.31
2017-10-02T07:03:26.718Z,42
2017-10-02T07:04:36.057Z,42.12
2017-10-02T07:05:45.070Z,42.12
2017-10-02T07:06:53.764Z,42.12
2017-10-02T07:08:02.462Z,42.19
2017-10-02T07:09:11.803Z,42.31
2017-10-02T07:10:20.814Z,42.02
2017-10-02T07:11:29.823Z,42.1
2017-10-02T07:12:38.833Z,42.02
2017-10-02T07:13:48.165Z,42.12
2017-10-02T07:14:57.182Z,42.19
2017-10-02T07:16:06.518Z,42.21
2017-10-02T07:17:15.533Z,42.19
2017-10-02T07:18:24.552Z,42.21
2017-10-02T07:19:33.571Z,42.5
2017-10-02T07:20:42.271Z,42.21
2017-10-02T07:21:51.290Z,42.21
2017-10-02T07:22:59.986Z,42.41
2017-10-02T07:24:09.645Z,42.41
2017-10-02T07:25:18.665Z,42.5
2017-10-02T07:26:27.679Z,42.5
2017-10-02T07:27:37.011Z,42.31
2017-10-02T07:28:45.703Z,42.31
2017-10-02T07:29:54.397Z,42.41
2017-10-02T07:31:03.738Z,42.19
2017-10-02T07:32:13.392Z,42.6
2017-10-02T07:33:23.362Z,42.5
2017-10-02T07:34:32.406Z,42.31
2017-10-02T07:35:42.068Z,42.41
2017-10-02T07:36:51.402Z,42.6
2017-10-02T07:38:00.099Z,42.41
2017-10-02T07:39:09.434Z,42.6
2017-10-02T07:40:18.451Z,42.6
2017-10-02T07:41:27.141Z,42.5
2017-10-02T07:42:36.472Z,42.41
2017-10-02T07:43:45.487Z,42.6
2017-10-02T07:44:54.828Z,42.5
2017-10-02T07:46:04.165Z,42.6
2017-10-02T07:47:13.818Z,42.6
2017-10-02T07:48:22.512Z,42.41
2017-10-02T07:49:31.855Z,42.31
2017-10-02T07:50:40.554Z,42.6
2017-10-02T07:51:49.890Z,42.6
2017-10-02T07:52:58.905Z,42.41
2017-10-02T07:54:07.600Z,42.6
2017-10-02T07:55:17.256Z,42.5
2017-10-02T07:56:26.270Z,42.6
2017-10-02T07:57:35.608Z,42.6
2017-10-02T07:58:44.943Z,42.6
2017-10-02T07:59:53.953Z,42.41
2017-10-02T08:01:02.968Z,42.6
2017-10-02T08:02:11.980Z,42.6
2017-10-02T08:03:20.991Z,42.6
2017-10-02T08:04:30.001Z,42.31
2017-10-02T08:05:39.030Z,42.6
2017-10-02T08:06:48.682Z,42.6
2017-10-02T08:07:58.015Z,42.6
2017-10-02T08:09:06.714Z,42.6
2017-10-02T08:10:15.733Z,42.31
2017-10-02T08:11:24.424Z,42.41
2017-10-02T08:12:33.438Z,42.41
2017-10-02T08:13:42.785Z,42.5
2017-10-02T08:14:51.797Z,42.31
2017-10-02T08:16:01.134Z,42.5
2017-10-02T08:17:10.148Z,42.41
2017-10-02T08:18:19.799Z,42.6
2017-10-02T08:19:28.813Z,42.5
2017-10-02T08:20:37.824Z,42.5
2017-10-02T08:21:47.150Z,42.6
2017-10-02T08:22:56.159Z,42.6
2017-10-02T08:24:05.492Z,42.5
2017-10-02T08:25:14.194Z,42.6
2017-10-02T08:26:23.853Z,42.6
2017-10-02T08:27:32.898Z,42.5
2017-10-02T08:28:41.888Z,42.6
2017-10-02T08:29:50.905Z,42.6
2017-10-02T08:30:59.601Z,42.6
2017-10-02T08:32:08.613Z,42.5
2017-10-02T08:33:17.316Z,42.5
2017-10-02T08:34:26.331Z,42.6
2017-10-02T08:35:35.347Z,42.6
2017-10-02T08:36:44.685Z,42.6
2017-10-02T08:37:54.020Z,42.6
2017-10-02T08:39:03.364Z,42.6
2017-10-02T08:40:12.381Z,42.6
2017-10-02T08:41:21.079Z,42.21
2017-10-02T08:42:29.784Z,42.31
2017-10-02T08:43:39.435Z,42.31
2017-10-02T08:44:48.769Z,42.79
2017-10-02T08:45:58.102Z,42.6
2017-10-02T08:47:07.444Z,42.7
2017-10-02T08:48:16.136Z,42.41
2017-10-02T08:49:25.154Z,42.5
2017-10-02T08:50:33.847Z,42.41
2017-10-02T08:51:42.865Z,42.31
2017-10-02T08:52:51.888Z,42.5
2017-10-02T08:54:00.905Z,42.7
2017-10-02T08:55:10.235Z,42.5
2017-10-02T08:56:19.892Z,42.41
2017-10-02T08:57:28.907Z,42.6
2017-10-02T08:58:37.934Z,42.41
2017-10-02T08:59:46.943Z,42.41
2017-10-02T09:00:55.957Z,42.7
2017-10-02T09:02:04.971Z,42.6
2017-10-02T09:03:13.990Z,42.41
2017-10-02T09:04:22.690Z,42.6
2017-10-02T09:05:31.709Z,42.31
2017-10-02T09:06:40.725Z,42.6
2017-10-02T09:07:49.419Z,42.41
2017-10-02T09:08:58.114Z,42.41
2017-10-02T09:10:07.129Z,42.41
2017-10-02T09:11:16.144Z,42.6
2017-10-02T09:12:24.839Z,42.31
2017-10-02T09:13:34.181Z,42.41
2017-10-02T09:14:42.867Z,42.5
2017-10-02T09:15:52.199Z,42.31
2017-10-02T09:17:00.892Z,42.7
2017-10-02T09:18:10.226Z,42.41
2017-10-02T09:19:19.562Z,42.5
2017-10-02T09:20:28.578Z,42.6
2017-10-02T09:21:37.275Z,42.41
2017-10-02T09:22:46.289Z,42.6
2017-10-02T09:23:55.306Z,42.6
2017-10-02T09:25:04.648Z,42.41
2017-10-02T09:26:13.668Z,42.5
2017-10-02T09:27:22.679Z,42.7
2017-10-02T09:28:32.013Z,42.41
2017-10-02T09:29:41.024Z,42.31
2017-10-02T09:30:50.039Z,42.7
2017-10-02T09:31:59.366Z,42.5
2017-10-02T09:33:08.060Z,42.7
2017-10-02T09:34:16.757Z,43.08
2017-10-02T09:35:25.784Z,43.08
2017-10-02T09:36:35.121Z,42.99
2017-10-02T09:37:44.455Z,42.6
2017-10-02T09:38:53.792Z,43.08
2017-10-02T09:40:03.446Z,43.08
2017-10-02T09:41:12.784Z,43.08
2017-10-02T09:42:21.793Z,42.31
2017-10-02T09:43:30.805Z,42.31
2017-10-02T09:44:39.821Z,42.31
2017-10-02T09:45:48.515Z,42.31
2017-10-02T09:46:57.527Z,42.5
2017-10-02T09:48:06.871Z,42.99
2017-10-02T09:49:15.887Z,42.31
2017-10-02T09:50:24.578Z,42.31
2017-10-02T09:51:33.916Z,42.41
2017-10-02T09:52:43.253Z,42.41
2017-10-02T09:53:52.266Z,42.99
2017-10-02T09:55:01.282Z,42.31
2017-10-02T09:56:10.298Z,43.08
2017-10-02T09:57:19.628Z,42.5
2017-10-02T09:58:28.647Z,42.5
2017-10-02T09:59:37.985Z,42.89
2017-10-02T10:00:47.320Z,42.79
2017-10-02T10:01:56.015Z,42.89
2017-10-02T10:03:04.712Z,42.5
2017-10-02T10:04:14.047Z,42.89
2017-10-02T10:05:23.059Z,42.89
2017-10-02T10:06:32.075Z,42.7
2017-10-02T10:07:41.088Z,42.5
2017-10-02T10:08:49.782Z,42.89
2017-10-02T10:09:58.799Z,42.5
2017-10-02T10:11:08.453Z,42.5
2017-10-02T10:12:17.785Z,42.89
2017-10-02T10:13:26.804Z,42.41
2017-10-02T10:14:36.133Z,42.41
2017-10-02T10:15:45.468Z,42.99
2017-10-02T10:16:54.480Z,42.31
2017-10-02T10:18:04.138Z,42.21
2017-10-02T10:19:13.469Z,42.5
2017-10-02T10:20:22.807Z,42.21
2017-10-02T10:21:31.825Z,43.08
2017-10-02T10:22:41.160Z,42.41
2017-10-02T10:23:50.178Z,42.12
2017-10-02T10:24:59.195Z,42.41
2017-10-02T10:26:08.219Z,43.08
2017-10-02T10:27:17.238Z,42.41
2017-10-02T10:28:26.571Z,42.41
2017-10-02T10:29:35.275Z,42.31
2017-10-02T10:30:44.929Z,42.31
2017-10-02T10:31:53.945Z,42.5
2017-10-02T10:33:02.964Z,42.31
2017-10-02T10:34:11.659Z,42.99
2017-10-02T10:35:20.675Z,42.41
2017-10-02T10:36:29.373Z,42.89
2017-10-02T10:37:38.389Z,42.31
2017-10-02T10:38:47.405Z,42.5
2017-10-02T10:39:56.099Z,42.31
2017-10-02T10:41:04.797Z,42.41
2017-10-02T10:42:13.817Z,42.31
2017-10-02T10:43:23.464Z,42.31
2017-10-02T10:44:32.159Z,42.89
2017-10-02T10:45:41.492Z,42.31
2017-10-02T10:46:50.821Z,42.89
2017-10-02T10:48:00.161Z,42.5
2017-10-02T10:49:09.502Z,42.89
2017-10-02T10:50:19.157Z,42.5
2017-10-02T10:51:28.491Z,42.79
2017-10-02T10:52:37.830Z,42.5
2017-10-02T10:53:46.525Z,42.31
2017-10-02T10:54:55.222Z,42.89
2017-10-02T10:56:04.561Z,42.89
2017-10-02T10:57:13.899Z,42.5
2017-10-02T10:58:22.592Z,42.41
2017-10-02T10:59:31.606Z,42.79
2017-10-02T11:00:40.303Z,42.89
2017-10-02T11:01:49.322Z,42.79
2017-10-02T11:02:59.286Z,42.5
2017-10-02T11:04:08.309Z,42.79
2017-10-02T11:05:17.324Z,42.7
2017-10-02T11:06:26.659Z,42.7
2017-10-02T11:07:36.312Z,42.79
2017-10-02T11:08:45.010Z,42.79
2017-10-02T11:09:54.020Z,42.79
2017-10-02T11:11:03.032Z,42.79
2017-10-02T11:12:11.727Z,42.6
2017-10-02T11:13:21.063Z,42.89
2017-10-02T11:14:30.078Z,42.99
2017-10-02T11:15:39.738Z,42.31
2017-10-02T11:16:48.756Z,42.21
2017-10-02T11:17:57.799Z,42.72
2017-10-02T11:19:07.133Z,42.89
2017-10-02T11:20:16.472Z,42.41
2017-10-02T11:21:25.810Z,42.41
2017-10-02T11:22:34.502Z,42.6
2017-10-02T11:23:43.513Z,42.6
2017-10-02T11:24:52.529Z,42.62
2017-10-02T11:26:01.547Z,42.52
2017-10-02T11:27:10.561Z,42.43
2017-10-02T11:28:19.574Z,42.52
2017-10-02T11:29:28.906Z,42.14
2017-10-02T11:30:38.558Z,42.33
2017-10-02T11:31:48.210Z,42.14
2017-10-02T11:32:57.858Z,42.33
2017-10-02T11:34:07.511Z,42.43
2017-10-02T11:35:16.527Z,42.62
2017-10-02T11:36:25.221Z,42.62
2017-10-02T11:37:33.921Z,42.43
2017-10-02T11:38:42.616Z,42.31
2017-10-02T11:39:51.630Z,42.52
2017-10-02T11:41:00.644Z,42.62
2017-10-02T11:42:10.294Z,42.21
2017-10-02T11:43:19.629Z,42.62
2017-10-02T11:44:28.974Z,42.5
2017-10-02T11:45:37.982Z,42.79
2017-10-02T11:46:47.315Z,43.01
2017-10-02T11:47:56.008Z,42.41
2017-10-02T11:49:04.704Z,43.2
2017-10-02T11:50:14.035Z,42.99
2017-10-02T11:51:23.373Z,42.33
2017-10-02T11:52:33.025Z,42.52
2017-10-02T11:53:42.365Z,42.91
2017-10-02T11:54:51.059Z,42.72
2017-10-02T11:56:01.030Z,42.52
2017-10-02T11:57:10.044Z,42.41
2017-10-02T11:58:19.055Z,42.43
2017-10-02T11:59:28.068Z,42.52
2017-10-02T12:00:36.761Z,42.62
2017-10-02T12:01:45.454Z,42.52
2017-10-02T12:02:54.468Z,42.62
2017-10-02T12:04:03.798Z,42.24
2017-10-02T12:05:13.778Z,42.24
2017-10-02T12:06:23.435Z,42.43
2017-10-02T12:07:32.136Z,42.62
2017-10-02T12:08:41.465Z,42.43
2017-10-02T12:09:50.798Z,42.14
2017-10-02T12:10:59.832Z,42.04
2017-10-02T12:12:08.849Z,41.94
2017-10-02T12:13:18.505Z,41.56
2017-10-02T12:14:27.204Z,41.56
2017-10-02T12:15:35.900Z,42.14
2017-10-02T12:16:44.917Z,41.67
2017-10-02T12:17:54.254Z,41.09
2017-10-02T12:19:03.266Z,41
2017-10-02T12:20:12.278Z,41.19
2017-10-02T12:21:21.293Z,41.29
2017-10-02T12:22:30.625Z,41
2017-10-02T12:23:39.968Z,41.48
2017-10-02T12:24:48.667Z,41.19
2017-10-02T12:25:57.681Z,42.07
2017-10-02T12:27:07.653Z,41.48
2017-10-02T12:28:16.988Z,41.77
2017-10-02T12:29:26.002Z,41.58
2017-10-02T12:30:35.338Z,41.67
2017-10-02T12:31:44.035Z,41.67
2017-10-02T12:32:52.733Z,41.97
2017-10-02T12:34:01.428Z,42.25
2017-10-02T12:35:10.122Z,41.58
2017-10-02T12:36:19.472Z,41.77
2017-10-02T12:37:28.813Z,41.39
2017-10-02T12:38:37.827Z,41.39
2017-10-02T12:39:46.844Z,41.39
2017-10-02T12:40:56.177Z,41.31
2017-10-02T12:42:05.191Z,41.41
2017-10-02T12:43:14.849Z,41.41
2017-10-02T12:44:24.515Z,41.31
2017-10-02T12:45:33.212Z,41.41
2017-10-02T12:46:42.862Z,41.41
2017-10-02T12:47:52.195Z,41.31
2017-10-02T12:49:01.213Z,42.08
2017-10-02T12:50:10.542Z,41.99
2017-10-02T12:51:20.197Z,41.5
2017-10-02T12:52:29.528Z,41.41
2017-10-02T12:53:38.861Z,41.5
2017-10-02T12:54:47.556Z,41.31
2017-10-02T12:55:56.571Z,40.83
2017-10-02T12:57:06.543Z,41.21
2017-10-02T12:58:15.557Z,41.02
2017-10-02T12:59:24.573Z,41.11
2017-10-02T13:00:33.587Z,41.11
2017-10-02T13:01:42.290Z,41.21
2017-10-02T13:02:51.310Z,41.21
2017-10-02T13:04:00.328Z,41.11
2017-10-02T13:05:09.984Z,40.83
2017-10-02T13:06:19.640Z,41.02
2017-10-02T13:07:28.337Z,40.83
2017-10-02T13:08:37.674Z,40.73
2017-10-02T13:09:46.367Z,40.92
2017-10-02T13:10:55.390Z,40.92
2017-10-02T13:12:04.723Z,41.02
2017-10-02T13:13:13.742Z,40.83
2017-10-02T13:14:23.077Z,40.63
2017-10-02T13:15:32.090Z,40.63
2017-10-02T13:16:41.109Z,40.63
2017-10-02T13:17:50.127Z,40.73
2017-10-02T13:18:59.143Z,40.83
2017-10-02T13:20:08.158Z,40.73
2017-10-02T13:21:17.173Z,40.83
2017-10-02T13:22:25.867Z,41.5
2017-10-02T13:23:35.206Z,41.31
2017-10-02T13:24:44.220Z,40.73
2017-10-02T13:25:53.237Z,40.73
2017-10-02T13:27:02.568Z,40.73
2017-10-02T13:28:11.265Z,40.73
2017-10-02T13:29:20.276Z,40.73
2017-10-02T13:30:28.971Z,40.73
2017-10-02T13:31:38.633Z,40.83
2017-10-02T13:32:47.965Z,41.31
2017-10-02T13:33:57.618Z,40.83
2017-10-02T13:35:06.955Z,41.41
2017-10-02T13:36:15.970Z,41.31
2017-10-02T13:37:24.985Z,40.63
2017-10-02T13:38:34.634Z,41.21
2017-10-02T13:39:43.648Z,41.21
2017-10-02T13:40:52.982Z,41.31
2017-10-02T13:42:02.318Z,40.73
2017-10-02T13:43:11.334Z,40.63
2017-10-02T13:44:20.664Z,40.63
2017-10-02T13:45:30.003Z,40.92
2017-10-02T13:46:39.019Z,41.21
2017-10-02T13:47:48.674Z,41.21
2017-10-02T13:48:58.360Z,40.92
2017-10-02T13:50:08.023Z,40.63
2017-10-02T13:51:17.041Z,40.83
2017-10-02T13:52:25.738Z,40.83
2017-10-02T13:53:34.759Z,40.92
2017-10-02T13:54:43.784Z,40.83
2017-10-02T13:55:52.481Z,41.31
2017-10-02T13:57:01.827Z,40.63
2017-10-02T13:58:10.844Z,40.73
2017-10-02T13:59:20.184Z,41.31
2017-10-02T14:00:28.881Z,40.73
2017-10-02T14:01:37.575Z,41.41
2017-10-02T14:02:46.591Z,41.41
2017-10-02T14:03:56.242Z,40.92
2017-10-02T14:05:04.934Z,41.02
2017-10-02T14:06:14.266Z,41.11
2017-10-02T14:07:23.278Z,40.83
2017-10-02T14:08:32.934Z,40.92
2017-10-02T14:09:41.962Z,40.92
2017-10-02T14:10:50.656Z,41.31
2017-10-02T14:11:59.669Z,40.83
2017-10-02T14:13:09.000Z,41.21
2017-10-02T14:14:18.021Z,40.83
2017-10-02T14:15:27.042Z,40.73
2017-10-02T14:16:36.380Z,41.21
2017-10-02T14:17:46.028Z,41.31
2017-10-02T14:18:55.038Z,40.53
2017-10-02T14:20:04.061Z,41.11
2017-10-02T14:21:12.759Z,40.83
2017-10-02T14:22:21.776Z,40.92
2017-10-02T14:23:31.117Z,41.5
2017-10-02T14:24:40.133Z,40.63
2017-10-02T14:25:49.466Z,40.92
2017-10-02T14:26:58.808Z,41.5
2017-10-02T14:28:07.821Z,40.83
2017-10-02T14:29:16.520Z,40.83
2017-10-02T14:30:25.539Z,40.53
2017-10-02T14:31:34.558Z,40.83
2017-10-02T14:32:43.901Z,40.63
2017-10-02T14:33:52.596Z,41.02
2017-10-02T14:35:01.939Z,41.21
2017-10-02T14:36:10.958Z,40.63
2017-10-02T14:37:19.979Z,40.44
2017-10-02T14:38:28.681Z,40.63
2017-10-02T14:39:38.350Z,40.44
2017-10-02T14:40:48.014Z,40.73
2017-10-02T14:41:57.344Z,40.44
2017-10-02T14:43:06.358Z,40.34
2017-10-02T14:44:15.057Z,41.11
2017-10-02T14:45:24.070Z,41.21
2017-10-02T14:46:32.765Z,40.92
2017-10-02T14:47:41.783Z,40.83
2017-10-02T14:48:51.119Z,41.21
2017-10-02T14:50:00.140Z,41.02
2017-10-02T14:51:08.837Z,41.02
2017-10-02T14:52:17.535Z,40.92
2017-10-02T14:53:26.553Z,41.41
2017-10-02T14:54:35.572Z,40.92
2017-10-02T14:55:44.591Z,41.41